createdAt,value
2022-12-11T00:02:03.079Z,11.35
2022-12-11T00:04:31.968Z,11.34
2022-12-11T00:06:59.991Z,11.34
2022-12-11T00:09:28.141Z,11.33
2022-12-11T00:11:56.684Z,11.32
2022-12-11T00:14:24.769Z,11.33
2022-12-11T00:16:52.796Z,11.33
2022-12-11T00:19:20.909Z,11.33
2022-12-11T00:21:48.866Z,11.34
2022-12-11T00:24:16.910Z,11.34
2022-12-11T00:26:45.209Z,11.35
2022-12-11T00:29:16.046Z,11.37
2022-12-11T00:31:44.805Z,11.37
2022-12-11T00:34:13.137Z,11.39
2022-12-11T00:36:41.194Z,11.38
2022-12-11T00:39:09.284Z,11.37
2022-12-11T00:41:37.375Z,11.37
2022-12-11T00:44:07.647Z,11.35
2022-12-11T00:46:36.319Z,11.33
2022-12-11T00:49:04.566Z,11.30
2022-12-11T00:51:33.328Z,11.27
2022-12-11T00:54:02.074Z,11.25
2022-12-11T00:56:30.792Z,11.21
2022-12-11T00:59:02.330Z,11.18
2022-12-11T01:01:41.513Z,11.15
2022-12-11T01:04:23.625Z,11.12
2022-12-11T01:06:51.738Z,11.10
2022-12-11T01:09:38.331Z,11.09
2022-12-11T01:12:06.492Z,11.06
2022-12-11T01:14:34.615Z,11.03
2022-12-11T01:17:02.803Z,11.01
2022-12-11T01:19:31.120Z,10.99
2022-12-11T01:21:59.253Z,10.98
2022-12-11T01:24:27.303Z,10.96
2022-12-11T01:26:55.348Z,10.93
2022-12-11T01:29:23.395Z,10.90
2022-12-11T01:31:51.298Z,10.86
2022-12-11T01:34:19.207Z,10.82
2022-12-11T01:36:47.157Z,10.79
2022-12-11T01:39:15.085Z,10.77
2022-12-11T01:41:43.010Z,10.77
2022-12-11T01:44:13.982Z,10.75
2022-12-11T01:46:43.355Z,10.75
2022-12-11T01:49:14.163Z,10.75
2022-12-11T01:51:52.020Z,10.74
2022-12-11T01:54:24.771Z,10.75
2022-12-11T01:56:56.319Z,10.76
2022-12-11T01:59:28.910Z,10.77
2022-12-11T02:02:06.297Z,10.76
2022-12-11T02:04:38.086Z,10.72
2022-12-11T02:07:06.592Z,10.68
2022-12-11T02:09:37.708Z,10.66
2022-12-11T02:12:36.235Z,10.64
2022-12-11T02:15:25.804Z,10.62
2022-12-11T02:18:07.991Z,10.58
2022-12-11T02:21:01.563Z,10.55
2022-12-11T02:23:50.950Z,10.53
2022-12-11T02:26:51.334Z,10.51
2022-12-11T02:29:43.710Z,10.50
2022-12-11T02:32:30.397Z,10.49
2022-12-11T02:35:06.325Z,10.46
2022-12-11T02:37:37.818Z,10.44
2022-12-11T02:40:11.530Z,10.41
2022-12-11T02:42:42.554Z,10.37
2022-12-11T02:45:12.607Z,10.34
2022-12-11T02:47:43.564Z,10.32
2022-12-11T02:50:15.387Z,10.29
2022-12-11T02:52:45.779Z,10.27
2022-12-11T02:55:16.168Z,10.25
2022-12-11T02:58:04.910Z,10.23
2022-12-11T03:04:41.099Z,10.14
2022-12-11T03:07:17.329Z,10.13
2022-12-11T03:09:48.630Z,10.10
2022-12-11T03:12:22.209Z,10.08
2022-12-11T03:15:04.204Z,10.07
2022-12-11T03:18:06.597Z,10.04
2022-12-11T03:20:41.290Z,10.01
2022-12-11T03:23:37.939Z,10.00
2022-12-11T03:26:12.843Z,9.99
2022-12-11T03:29:11.642Z,9.98
2022-12-11T03:31:57.854Z,9.98
2022-12-11T03:34:39.662Z,9.96
2022-12-11T03:37:09.024Z,9.97
2022-12-11T03:39:55.690Z,9.97
2022-12-11T03:42:25.130Z,9.97
2022-12-11T03:44:55.434Z,9.96
2022-12-11T03:47:26.032Z,9.95
2022-12-11T03:49:56.471Z,9.94
2022-12-11T03:52:27.713Z,9.93
2022-12-11T03:54:59.749Z,9.92
2022-12-11T03:57:33.879Z,9.89
2022-12-11T04:00:05.068Z,9.86
2022-12-11T04:02:40.974Z,9.83
2022-12-11T04:05:12.161Z,9.79
2022-12-11T04:07:43.072Z,9.75
2022-12-11T04:10:11.053Z,9.72
2022-12-11T04:12:38.981Z,9.68
2022-12-11T04:15:07.253Z,9.65
2022-12-11T04:17:55.411Z,9.62
2022-12-11T04:20:41.997Z,9.58
2022-12-11T04:23:36.777Z,9.54
2022-12-11T04:26:26.284Z,9.49
2022-12-11T04:31:36.410Z,9.41
2022-12-11T04:34:04.846Z,9.38
2022-12-11T04:36:32.902Z,9.35
2022-12-11T04:39:01.095Z,9.35
2022-12-11T04:41:29.232Z,9.35
2022-12-11T04:43:57.178Z,9.36
2022-12-11T04:46:33.337Z,9.37
2022-12-11T04:49:01.385Z,9.38
2022-12-11T04:51:29.821Z,9.39
2022-12-11T04:53:58.780Z,9.42
2022-12-11T04:56:26.961Z,9.46
2022-12-11T04:58:55.175Z,9.51
2022-12-11T05:01:23.495Z,9.54
2022-12-11T05:11:03.441Z,9.61
2022-12-11T05:13:41.501Z,9.67
2022-12-11T05:16:16.885Z,9.69
2022-12-11T05:18:45.126Z,9.72
2022-12-11T05:21:15.121Z,9.77
2022-12-11T05:23:43.341Z,9.81
2022-12-11T05:26:29.407Z,9.84
2022-12-11T05:37:36.647Z,9.96
2022-12-11T05:40:06.557Z,9.97
2022-12-11T05:42:38.905Z,9.98
2022-12-11T05:45:07.218Z,9.99
2022-12-11T05:47:35.223Z,10.02
2022-12-11T05:50:03.440Z,10.04
2022-12-11T05:52:31.981Z,10.05
2022-12-11T05:55:00.167Z,10.08
2022-12-11T05:57:31.449Z,10.11
2022-12-11T05:59:59.890Z,10.13
2022-12-11T06:02:27.957Z,10.16
2022-12-11T06:04:56.333Z,10.17
2022-12-11T06:07:25.460Z,10.18
2022-12-11T06:09:53.574Z,10.18
2022-12-11T06:12:21.632Z,10.19
2022-12-11T06:14:49.536Z,10.19
2022-12-11T06:17:17.581Z,10.20
2022-12-11T06:19:45.936Z,10.20
2022-12-11T06:22:13.924Z,10.20
2022-12-11T06:24:41.834Z,10.21
2022-12-11T06:27:10.159Z,10.23
2022-12-11T06:29:38.052Z,10.29
2022-12-11T06:32:06.280Z,10.33
2022-12-11T06:34:34.212Z,10.37
2022-12-11T06:37:02.189Z,10.40
2022-12-11T06:39:30.166Z,10.41
2022-12-11T06:41:58.064Z,10.43
2022-12-11T06:44:26.097Z,10.44
2022-12-11T06:46:53.997Z,10.44
2022-12-11T06:49:22.162Z,10.44
2022-12-11T06:51:50.150Z,10.42
2022-12-11T06:54:18.185Z,10.41
2022-12-11T06:56:46.335Z,10.40
2022-12-11T06:59:14.331Z,10.38
2022-12-11T07:01:42.270Z,10.35
2022-12-11T07:04:10.423Z,10.32
2022-12-11T07:06:38.495Z,10.29
2022-12-11T07:09:06.846Z,10.27
2022-12-11T07:11:37.703Z,10.22
2022-12-11T07:14:05.623Z,10.16
2022-12-11T07:16:33.486Z,10.09
2022-12-11T07:19:01.505Z,10.03
2022-12-11T07:21:29.670Z,9.96
2022-12-11T07:23:57.749Z,9.92
2022-12-11T07:26:25.900Z,9.85
2022-12-11T07:28:57.659Z,9.78
2022-12-11T07:31:28.188Z,9.70
2022-12-11T07:33:59.211Z,9.62
2022-12-11T07:36:28.589Z,9.56
2022-12-11T07:38:56.747Z,9.49
2022-12-11T07:41:24.866Z,9.43
2022-12-11T07:43:56.177Z,9.37
2022-12-11T07:46:27.128Z,9.28
2022-12-11T07:48:55.440Z,9.21
2022-12-11T07:51:29.333Z,9.14
2022-12-11T07:53:59.624Z,9.06
2022-12-11T07:56:28.721Z,8.98
2022-12-11T07:58:58.886Z,8.88
2022-12-11T08:01:28.717Z,8.74
2022-12-11T08:03:57.258Z,8.63
2022-12-11T08:06:30.836Z,8.52
2022-12-11T08:09:00.475Z,8.41
2022-12-11T08:11:28.588Z,8.32
2022-12-11T08:13:59.206Z,8.24
2022-12-11T08:16:27.565Z,8.16
2022-12-11T08:18:55.753Z,8.09
2022-12-11T08:21:26.849Z,8.05
2022-12-11T08:23:55.383Z,8.01
2022-12-11T08:26:26.808Z,7.98
2022-12-11T08:28:55.483Z,7.95
2022-12-11T08:31:24.144Z,7.91
2022-12-11T08:33:52.981Z,7.89
2022-12-11T08:36:22.990Z,7.87
2022-12-11T08:38:52.112Z,7.84
2022-12-11T08:41:23.146Z,7.82
2022-12-11T08:43:55.332Z,7.80
2022-12-11T08:46:25.780Z,7.79
2022-12-11T08:48:55.153Z,7.78
2022-12-11T08:51:25.987Z,7.77
2022-12-11T08:53:59.167Z,7.75
2022-12-11T08:56:28.397Z,7.72
2022-12-11T08:58:59.068Z,7.70
2022-12-11T09:01:28.024Z,7.69
2022-12-11T09:03:56.964Z,7.71
2022-12-11T09:06:27.495Z,7.73
2022-12-11T09:08:56.522Z,7.75
2022-12-11T09:11:27.826Z,7.76
2022-12-11T09:13:56.415Z,7.76
2022-12-11T09:16:25.811Z,7.79
2022-12-11T09:18:56.615Z,7.79
2022-12-11T09:21:28.543Z,7.74
2022-12-11T09:23:59.819Z,7.70
2022-12-11T09:26:30.294Z,7.67
2022-12-11T09:28:58.701Z,7.64
2022-12-11T09:31:29.687Z,7.63
2022-12-11T09:34:00.920Z,7.64
2022-12-11T09:36:29.770Z,7.63
2022-12-11T09:39:03.613Z,7.65
2022-12-11T09:41:47.146Z,7.67
2022-12-11T09:44:20.668Z,7.67
2022-12-11T09:46:50.205Z,7.67
2022-12-11T09:49:43.940Z,7.69
2022-12-11T09:52:17.944Z,7.69
2022-12-11T09:54:59.450Z,7.68
2022-12-11T09:57:45.795Z,7.69
2022-12-11T10:00:19.664Z,7.68
2022-12-11T10:03:15.704Z,7.69
2022-12-11T10:06:17.270Z,7.72
2022-12-11T10:08:49.455Z,7.76
2022-12-11T10:11:20.487Z,7.76
2022-12-11T10:14:32.873Z,7.75
2022-12-11T10:17:34.025Z,7.73
2022-12-11T10:20:39.165Z,7.72
2022-12-11T10:23:09.739Z,7.75
2022-12-11T10:25:42.976Z,7.76
2022-12-11T10:28:16.233Z,7.79
2022-12-11T10:31:06.880Z,7.82
2022-12-11T10:33:41.445Z,7.86
2022-12-11T10:36:12.464Z,7.88
2022-12-11T10:38:45.547Z,7.90
2022-12-11T10:41:16.747Z,7.90
2022-12-11T10:43:48.644Z,7.86
2022-12-11T10:46:22.071Z,7.82
2022-12-11T10:48:59.611Z,7.79
2022-12-11T10:51:30.615Z,7.80
2022-12-11T10:54:24.872Z,7.82
2022-12-11T10:56:54.359Z,7.71
2022-12-11T10:59:34.506Z,7.58
2022-12-11T11:02:04.078Z,7.45
2022-12-11T11:04:41.716Z,7.31
2022-12-11T11:07:14.065Z,7.10
2022-12-11T11:09:41.966Z,6.76
2022-12-11T11:12:47.114Z,6.47
2022-12-11T11:15:27.187Z,6.25
2022-12-11T11:17:57.594Z,6.11
2022-12-11T11:20:31.207Z,5.97
2022-12-11T11:23:11.543Z,5.87
2022-12-11T11:25:40.386Z,5.85
2022-12-11T11:28:21.185Z,5.88
2022-12-11T11:31:16.738Z,5.89
2022-12-11T11:33:47.138Z,5.90
2022-12-11T11:36:22.197Z,5.87
2022-12-11T11:39:02.998Z,5.73
2022-12-11T11:41:41.644Z,5.64
2022-12-11T11:44:15.584Z,5.54
2022-12-11T11:46:53.851Z,5.43
2022-12-11T11:49:36.106Z,5.29
2022-12-11T11:52:16.742Z,5.15
2022-12-11T11:55:06.169Z,5.16
2022-12-11T11:57:42.630Z,5.20
2022-12-11T12:00:23.088Z,5.19
2022-12-11T12:03:14.034Z,5.24
2022-12-11T12:05:59.125Z,5.25
2022-12-11T12:08:53.135Z,5.21
2022-12-11T12:11:39.936Z,5.12
2022-12-11T12:14:53.701Z,4.98
2022-12-11T12:17:44.983Z,4.83
2022-12-11T12:20:38.044Z,4.69
2022-12-11T12:23:42.938Z,4.56
2022-12-11T12:26:54.874Z,4.45
2022-12-11T12:29:44.755Z,4.39
2022-12-11T12:32:23.588Z,4.35
2022-12-11T12:35:00.211Z,4.27
2022-12-11T12:37:47.661Z,4.24
2022-12-11T12:41:03.524Z,4.25
2022-12-11T12:43:53.193Z,4.26
2022-12-11T12:46:34.662Z,4.23
2022-12-11T12:49:04.269Z,4.19
2022-12-11T12:51:32.730Z,4.15
2022-12-11T12:54:06.565Z,4.06
2022-12-11T12:56:38.773Z,4.02
2022-12-11T12:59:28.788Z,4.06
2022-12-11T13:02:06.616Z,4.10
2022-12-11T13:04:56.458Z,4.13
2022-12-11T13:07:31.481Z,4.11
2022-12-11T13:10:26.219Z,4.05
2022-12-11T13:12:55.000Z,4.00
2022-12-11T13:15:32.345Z,3.95
2022-12-11T13:18:02.819Z,3.96
2022-12-11T13:20:33.718Z,3.98
2022-12-11T13:23:16.787Z,4.00
2022-12-11T13:25:54.242Z,4.02
2022-12-11T13:28:27.931Z,4.02
2022-12-11T13:31:04.524Z,3.99
2022-12-11T13:33:33.390Z,3.83
2022-12-11T13:36:16.736Z,3.68
2022-12-11T13:39:07.067Z,3.51
2022-12-11T13:41:37.663Z,3.37
2022-12-11T13:44:07.278Z,3.30
2022-12-11T13:46:37.427Z,3.28
2022-12-11T13:49:07.500Z,3.26
2022-12-11T13:51:37.084Z,3.21
2022-12-11T13:54:16.342Z,3.14
2022-12-11T13:57:06.323Z,3.08
2022-12-11T13:59:37.175Z,2.97
2022-12-11T14:02:18.031Z,2.89
2022-12-11T14:04:49.810Z,2.81
2022-12-11T14:07:33.894Z,2.76
2022-12-11T14:10:22.035Z,2.73
2022-12-11T14:13:08.133Z,2.67
2022-12-11T14:15:37.009Z,2.62
2022-12-11T14:18:05.793Z,2.62
2022-12-11T14:20:34.903Z,2.65
2022-12-11T14:23:05.743Z,2.68
2022-12-11T14:25:33.775Z,2.69
2022-12-11T14:28:01.816Z,2.66
2022-12-11T14:30:33.242Z,2.61
2022-12-11T14:33:05.301Z,2.56
2022-12-11T14:35:39.179Z,2.55
2022-12-11T14:38:36.281Z,2.57
2022-12-11T14:41:18.776Z,2.58
2022-12-11T14:44:00.547Z,2.57
2022-12-11T14:46:44.491Z,2.52
2022-12-11T14:49:28.774Z,2.46
2022-12-11T14:51:58.535Z,2.42
2022-12-11T14:55:05.651Z,2.34
2022-12-11T14:57:34.870Z,2.24
2022-12-11T15:00:05.188Z,2.11
2022-12-11T15:02:35.688Z,2.03
2022-12-11T15:05:09.807Z,1.98
2022-12-11T15:07:38.204Z,1.89
2022-12-11T15:10:06.551Z,1.73
2022-12-11T15:12:35.046Z,1.72
2022-12-11T15:15:07.336Z,1.78
2022-12-11T15:17:37.541Z,1.77
2022-12-11T15:20:09.157Z,1.72
2022-12-11T15:22:38.080Z,1.68
2022-12-11T15:25:06.338Z,1.69
2022-12-11T15:27:39.444Z,1.73
2022-12-11T15:30:29.189Z,1.72
2022-12-11T15:33:09.288Z,1.76
2022-12-11T15:35:40.355Z,1.80
2022-12-11T15:38:35.225Z,1.81
2022-12-11T15:41:04.327Z,1.84
2022-12-11T15:43:36.083Z,1.89
2022-12-11T15:46:05.507Z,1.94
2022-12-11T15:48:33.876Z,1.99
2022-12-11T15:51:01.804Z,1.94
2022-12-11T15:53:29.989Z,1.86
2022-12-11T15:55:59.630Z,1.75
2022-12-11T15:58:28.216Z,1.65
2022-12-11T16:00:57.460Z,1.60
2022-12-11T16:03:26.038Z,1.57
2022-12-11T16:05:53.981Z,1.54
2022-12-11T16:08:23.769Z,1.53
2022-12-11T16:10:54.735Z,1.55
2022-12-11T16:13:23.034Z,1.60
2022-12-11T16:15:52.198Z,1.58
2022-12-11T16:18:22.934Z,1.53
2022-12-11T16:20:51.834Z,1.48
2022-12-11T16:23:20.510Z,1.41
2022-12-11T16:25:49.394Z,1.31
2022-12-11T16:28:21.119Z,1.31
2022-12-11T16:30:49.839Z,1.32
2022-12-11T16:33:17.875Z,1.34
2022-12-11T16:35:45.942Z,1.32
2022-12-11T16:38:13.951Z,1.27
2022-12-11T16:40:41.887Z,1.20
2022-12-11T16:43:10.995Z,1.17
2022-12-11T16:45:39.934Z,1.16
2022-12-11T16:48:07.815Z,1.07
2022-12-11T16:50:36.658Z,0.98
2022-12-11T16:53:04.756Z,0.97
2022-12-11T16:55:32.684Z,1.00
2022-12-11T16:58:01.344Z,1.00
2022-12-11T17:00:31.281Z,0.96
2022-12-11T17:02:59.225Z,0.83
2022-12-11T17:05:27.126Z,0.73
2022-12-11T17:07:55.414Z,0.68
2022-12-11T17:10:23.502Z,0.59
2022-12-11T17:12:51.420Z,0.53
2022-12-11T17:15:19.527Z,0.51
2022-12-11T17:17:47.532Z,0.47
2022-12-11T17:20:15.559Z,0.41
2022-12-11T17:22:43.449Z,0.28
2022-12-11T17:25:11.867Z,0.21
2022-12-11T17:27:40.158Z,0.17
2022-12-11T17:30:09.124Z,0.13
2022-12-11T17:32:37.066Z,0.12
2022-12-11T17:35:05.814Z,0.12
2022-12-11T17:37:33.923Z,0.08
2022-12-11T17:40:01.909Z,0.05
2022-12-11T17:42:29.913Z,0.01
2022-12-11T17:44:57.797Z,-0.07
2022-12-11T17:47:25.729Z,-0.15
2022-12-11T17:49:53.702Z,-0.17
2022-12-11T17:52:21.614Z,-0.14
2022-12-11T17:54:49.615Z,-0.09
2022-12-11T17:57:17.475Z,-0.04
2022-12-11T17:59:45.614Z,-0.01
2022-12-11T18:02:13.605Z,0.01
2022-12-11T18:04:41.690Z,0.04
2022-12-11T18:07:09.822Z,0.09
2022-12-11T18:09:40.734Z,0.15
2022-12-11T18:12:09.885Z,0.19
2022-12-11T18:14:38.316Z,0.18
2022-12-11T18:17:06.997Z,0.17
2022-12-11T18:19:35.218Z,0.13
2022-12-11T18:22:03.295Z,0.08
2022-12-11T18:24:32.048Z,0.10
2022-12-11T18:27:00.094Z,0.13
2022-12-11T18:29:28.751Z,0.13
2022-12-11T18:31:56.696Z,0.10
2022-12-11T18:34:24.703Z,0.05
2022-12-11T18:36:52.754Z,-0.02
2022-12-11T18:39:20.695Z,-0.08
2022-12-11T18:42:03.408Z,-0.12
2022-12-11T18:44:31.815Z,-0.15
2022-12-11T18:46:59.845Z,-0.19
2022-12-11T18:49:27.864Z,-0.19
2022-12-11T18:51:55.924Z,-0.14
2022-12-11T18:54:23.980Z,-0.10
2022-12-11T18:56:51.852Z,-0.09
2022-12-11T18:59:19.817Z,-0.11
2022-12-11T19:01:47.993Z,-0.12
2022-12-11T19:04:16.014Z,-0.09
2022-12-11T19:06:43.896Z,-0.06
2022-12-11T19:09:13.125Z,-0.01
2022-12-11T19:11:42.134Z,0.06
2022-12-11T19:14:10.698Z,0.11
2022-12-11T19:16:41.162Z,0.16
2022-12-11T19:19:14.470Z,0.23
2022-12-11T19:21:43.351Z,0.23
2022-12-11T19:24:18.658Z,0.22
2022-12-11T19:26:47.211Z,0.18
2022-12-11T19:29:36.267Z,0.14
2022-12-11T19:32:05.348Z,0.11
2022-12-11T19:34:33.338Z,0.10
2022-12-11T19:37:01.537Z,0.07
2022-12-11T19:39:29.986Z,0.01
2022-12-11T19:41:57.970Z,-0.02
2022-12-11T19:44:26.260Z,-0.03
2022-12-11T19:46:54.294Z,-0.02
2022-12-11T19:49:22.374Z,-0.04
2022-12-11T19:51:52.784Z,-0.06
2022-12-11T19:54:21.013Z,-0.08
2022-12-11T19:57:39.609Z,-0.11
2022-12-11T20:00:11.130Z,-0.18
2022-12-11T20:02:49.243Z,-0.23
2022-12-11T20:05:18.183Z,-0.26
2022-12-11T20:07:46.485Z,-0.30
2022-12-11T20:10:15.791Z,-0.34
2022-12-11T20:12:44.199Z,-0.38
2022-12-11T20:15:12.642Z,-0.40
2022-12-11T20:17:47.589Z,-0.43
2022-12-11T20:21:35.056Z,-0.46
2022-12-11T20:24:55.557Z,-0.46
2022-12-11T20:27:49.598Z,-0.48
2022-12-11T20:30:25.973Z,-0.45
2022-12-11T20:33:23.426Z,-0.47
2022-12-11T20:37:01.337Z,-0.47
2022-12-11T20:44:21.902Z,-0.46
2022-12-11T20:46:51.161Z,-0.47
2022-12-11T20:49:23.028Z,-0.45
2022-12-11T20:51:52.267Z,-0.43
2022-12-11T20:54:24.490Z,-0.44
2022-12-11T20:56:55.631Z,-0.44
2022-12-11T21:03:42.032Z,-0.48
2022-12-11T21:06:56.176Z,-0.50
2022-12-11T21:13:19.748Z,-0.53
2022-12-11T21:15:56.492Z,-0.54
2022-12-11T21:18:28.231Z,-0.54
2022-12-11T21:21:04.933Z,-0.57
2022-12-11T21:28:35.483Z,-0.64
2022-12-11T21:40:54.198Z,-0.62
2022-12-11T22:12:16.899Z,-0.32
2022-12-11T22:35:06.018Z,-0.24
2022-12-11T22:37:52.641Z,-0.17
2022-12-11T22:40:22.330Z,-0.14
2022-12-11T22:47:00.685Z,-0.12
2022-12-11T22:49:28.861Z,-0.15
2022-12-11T22:51:57.865Z,-0.20
2022-12-11T22:54:25.972Z,-0.24
2022-12-11T22:56:56.026Z,-0.28
2022-12-11T22:59:26.710Z,-0.30
2022-12-11T23:02:37.238Z,-0.38
2022-12-11T23:05:45.549Z,-0.40
2022-12-11T23:08:13.751Z,-0.51
2022-12-11T23:10:42.821Z,-0.61
2022-12-11T23:13:14.845Z,-0.69
2022-12-11T23:16:11.581Z,-0.77
2022-12-11T23:19:11.476Z,-0.82
2022-12-11T23:21:40.791Z,-0.82
2022-12-11T23:24:48.096Z,-0.87
2022-12-11T23:32:45.843Z,-0.91
2022-12-11T23:35:14.207Z,-0.99
2022-12-11T23:37:42.726Z,-1.06
2022-12-11T23:40:18.059Z,-1.11
2022-12-11T23:42:51.608Z,-1.14
2022-12-11T23:45:21.199Z,-1.14
2022-12-11T23:47:49.812Z,-1.15
2022-12-11T23:50:18.895Z,-1.16
2022-12-11T23:52:49.145Z,-1.15
2022-12-11T23:59:28.516Z,-1.16
